| time (UTC) | temp C | wind direction | speed KPH | gust KPH | rain 1hr cm | rain 24hr cm | rain mn cm | humidity % | barometer mb |
| 20260506202003 | 10 | 40 | 8.0 | 19.3 | 0.15 | 1.80 | 1.75 | 95 | 1004.6 |
| 20260506201503 | 10 | 1 | 8.0 | 17.7 | 0.15 | 1.80 | 1.75 | 94 | 1004.2 |
| 20260506201003 | 10 | 341 | 8.0 | 16.1 | 0.00 | 1.65 | 1.60 | 94 | 1005.4 |
| 20260506200503 | 11 | 22 | 8.0 | 16.1 | 0.00 | 1.65 | 1.60 | 94 | 1004.6 |
| 20260506200214 | 11 | 30 | 8.0 | 19.3 | 0.00 | 1.65 | 1.60 | 94 | 1004.5 |
| 20260506195503 | 13 | 38 | 4.8 | 19.3 | 0.00 | 1.65 | 1.60 | 93 | 1004.6 |
| 20260506195003 | 15 | 46 | 3.2 | 11.3 | 0.00 | 1.65 | 1.60 | 94 | 1004.6 |
| 20260506194712 | 15 | 58 | 3.2 | 11.3 | 0.00 | 1.65 | 1.60 | 95 | 1004.6 |
| 20260506194003 | 16 | 207 | 0.0 | 3.2 | 0.03 | 1.65 | 1.60 | 97 | 1004.5 |
| 20260506193713 | 16 | 207 | 0.0 | 3.2 | 0.03 | 1.65 | 1.60 | 97 | 1004.4 |
| 20260506193003 | 16 | 212 | 1.6 | 6.4 | 0.03 | 1.65 | 1.60 | 97 | 1004.6 |
| 20260506192503 | 16 | 203 | 1.6 | 6.4 | 0.05 | 1.65 | 1.60 | 96 | 1004.6 |
| 20260506192003 | 16 | 193 | 1.6 | 3.2 | 0.08 | 1.65 | 1.60 | 97 | 1004.6 |
| 20260506191503 | 16 | 193 | 1.6 | 6.4 | 0.08 | 1.65 | 1.60 | 97 | 1004.5 |
| 20260506191003 | 16 | 194 | 1.6 | 6.4 | 0.10 | 1.65 | 1.60 | 97 | 1004.4 |
| 20260506190503 | 16 | 187 | 1.6 | 6.4 | 0.13 | 1.65 | 1.60 | 97 | 1004.4 |
| 20260506190004 | 16 | 174 | 1.6 | 8.0 | 0.18 | 1.65 | 1.60 | 96 | 1004.5 |
| 20260506185503 | 16 | 182 | 1.6 | 8.0 | 0.20 | 1.65 | 1.60 | 96 | 1004.6 |
| 20260506185003 | 16 | 205 | 1.6 | 4.8 | 0.23 | 1.65 | 1.60 | 96 | 1004.6 |
| 20260506184503 | 16 | 206 | 1.6 | 3.2 | 0.23 | 1.65 | 1.60 | 96 | 1004.5 |
| 20260506184003 | 16 | 211 | 1.6 | 4.8 | 0.23 | 1.63 | 1.57 | 96 | 1004.6 |
| 20260506183503 | 16 | 235 | 1.6 | 6.4 | 0.23 | 1.63 | 1.57 | 97 | 1004.6 |
| 20260506183003 | 16 | 249 | 1.6 | 6.4 | 0.23 | 1.63 | 1.57 | 97 | 1004.6 |
| 20260506182503 | 15 | 231 | 1.6 | 6.4 | 0.23 | 1.60 | 1.55 | 96 | 1004.8 |
| 20260506182003 | 15 | 215 | 1.6 | 6.4 | 0.20 | 1.57 | 1.52 | 96 | 1004.8 |
| 20260506181503 | 15 | 197 | 0.0 | 3.2 | 0.23 | 1.57 | 1.52 | 96 | 1004.8 |
| 20260506181003 | 15 | 193 | 1.6 | 11.3 | 0.25 | 1.55 | 1.50 | 96 | 1004.8 |
| 20260506180503 | 15 | 191 | 1.6 | 11.3 | 0.23 | 1.52 | 1.47 | 96 | 1004.8 |
| 20260506180004 | 15 | 190 | 1.6 | 4.8 | 0.20 | 1.47 | 1.42 | 96 | 1004.8 |
| 20260506175503 | 15 | 185 | 1.6 | 6.4 | 0.20 | 1.45 | 1.40 | 96 | 1004.7 |
| 20260506175003 | 15 | 178 | 1.6 | 6.4 | 0.20 | 1.42 | 1.37 | 96 | 1004.7 |
| 20260506174714 | 15 | 174 | 1.6 | 6.4 | 0.20 | 1.42 | 1.37 | 96 | 1004.8 |
| 20260506174003 | 15 | 166 | 1.6 | 8.0 | 0.23 | 1.40 | 1.35 | 97 | 1004.8 |
| 20260506173503 | 15 | 134 | 1.6 | 8.0 | 0.25 | 1.40 | 1.35 | 96 | 1004.8 |
| 20260506173003 | 15 | 3 | 1.6 | 4.8 | 0.28 | 1.40 | 1.35 | 97 | 1004.8 |
| 20260506172503 | 14 | 360 | 0.0 | 3.2 | 0.28 | 1.37 | 1.32 | 96 | 1004.9 |
| 20260506172003 | 14 | 360 | 0.0 | 3.2 | 0.30 | 1.37 | 1.32 | 96 | 1005.0 |
| 20260506171503 | 13 | 360 | 0.0 | 1.6 | 0.30 | 1.35 | 1.30 | 96 | 1005.1 |
| 20260506171213 | 13 | 0 | 0.0 | 0.0 | 0.28 | 1.32 | 1.27 | 96 | 1005.1 |
| 20260506170503 | 13 | 360 | 0.0 | 1.6 | 0.28 | 1.30 | 1.24 | 96 | 1005.3 |
| 20260506170213 | 13 | 360 | 0.0 | 1.6 | 0.28 | 1.27 | 1.22 | 96 | 1005.3 |
| 20260506165713 | 13 | 360 | 0.0 | 1.6 | 0.28 | 1.24 | 1.22 | 96 | 1005.3 |
| 20260506165212 | 13 | 0 | 0.0 | 0.0 | 0.28 | 1.22 | 1.17 | 96 | 1005.5 |
| 20260506164503 | 13 | 0 | 0.0 | 0.0 | 0.28 | 1.19 | 1.14 | 96 | 1005.7 |
| 20260506164003 | 13 | 360 | 0.0 | 1.6 | 0.30 | 1.17 | 1.12 | 96 | 1005.7 |
| 20260506163503 | 13 | 360 | 0.0 | 1.6 | 0.28 | 1.14 | 1.09 | 96 | 1005.7 |
| 20260506163003 | 13 | 360 | 1.6 | 6.4 | 0.28 | 1.12 | 1.07 | 96 | 1005.7 |
| 20260506162503 | 13 | 14 | 3.2 | 9.7 | 0.28 | 1.09 | 1.04 | 96 | 1005.7 |
| 20260506162003 | 13 | 57 | 3.2 | 9.7 | 0.28 | 1.07 | 1.02 | 96 | 1005.6 |
| 20260506161503 | 13 | 98 | 0.0 | 6.4 | 0.28 | 1.04 | 0.99 | 95 | 1005.7 |
| 20260506161003 | 13 | 0 | 0.0 | 0.0 | 0.28 | 1.02 | 0.97 | 95 | 1006.0 |
| 20260506160503 | 13 | 0 | 0.0 | 0.0 | 0.28 | 1.02 | 0.97 | 95 | 1006.1 |
| 20260506160003 | 13 | 0 | 0.0 | 0.0 | 0.28 | 0.99 | 0.94 | 95 | 1006.2 |
| 20260506155503 | 13 | 0 | 0.0 | 0.0 | 0.28 | 0.97 | 0.91 | 95 | 1006.3 |
| 20260506155003 | 13 | 0 | 0.0 | 0.0 | 0.28 | 0.94 | 0.89 | 95 | 1006.3 |
| 20260506154503 | 12 | 0 | 0.0 | 0.0 | 0.28 | 0.91 | 0.86 | 95 | 1006.4 |
| 20260506154003 | 12 | 0 | 0.0 | 0.0 | 0.25 | 0.86 | 0.81 | 95 | 1006.5 |
| 20260506153713 | 12 | 0 | 0.0 | 0.0 | 0.25 | 0.86 | 0.81 | 95 | 1006.5 |
| 20260506153003 | 12 | 0 | 0.0 | 0.0 | 0.28 | 0.84 | 0.79 | 95 | 1006.5 |
| 20260506152503 | 12 | 0 | 0.0 | 0.0 | 0.28 | 0.81 | 0.76 | 95 | 1006.6 |
| 20260506152214 | 12 | 0 | 0.0 | 0.0 | 0.28 | 0.79 | 0.76 | 95 | 1006.7 |
| 20260506151503 | 12 | 0 | 0.0 | 0.0 | 0.28 | 0.76 | 0.71 | 95 | 1006.6 |
| 20260506151003 | 12 | 0 | 0.0 | 0.0 | 0.28 | 0.74 | 0.69 | 95 | 1006.7 |
| 20260506150503 | 12 | 0 | 0.0 | 0.0 | 0.28 | 0.74 | 0.69 | 95 | 1006.7 |
| 20260506150003 | 12 | 0 | 0.0 | 0.0 | 0.28 | 0.71 | 0.66 | 95 | 1006.7 |
| 20260506145713 | 12 | 0 | 0.0 | 0.0 | 0.28 | 0.71 | 0.66 | 95 | 1006.8 |
| 20260506145003 | 12 | 0 | 0.0 | 0.0 | 0.25 | 0.66 | 0.61 | 94 | 1007.1 |
| 20260506144503 | 12 | 0 | 0.0 | 0.0 | 0.23 | 0.64 | 0.58 | 94 | 1007.2 |
| 20260506144214 | 12 | 0 | 0.0 | 0.0 | 0.25 | 0.64 | 0.58 | 94 | 1007.1 |
| 20260506143503 | 12 | 0 | 0.0 | 0.0 | 0.23 | 0.58 | 0.53 | 94 | 1007.2 |
| 20260506143003 | 12 | 0 | 0.0 | 0.0 | 0.23 | 0.56 | 0.51 | 94 | 1007.3 |
| 20260506142503 | 12 | 0 | 0.0 | 0.0 | 0.23 | 0.53 | 0.48 | 94 | 1007.4 |
| 20260506142003 | 12 | 0 | 0.0 | 0.0 | 0.23 | 0.51 | 0.46 | 94 | 1007.4 |
| 20260506141503 | 12 | 0 | 0.0 | 0.0 | 0.20 | 0.48 | 0.43 | 94 | 1007.4 |
| 20260506141213 | 12 | 0 | 0.0 | 0.0 | 0.23 | 0.48 | 0.43 | 94 | 1007.5 |
| 20260506140503 | 12 | 0 | 0.0 | 0.0 | 0.23 | 0.46 | 0.41 | 94 | 1007.5 |
| 20260506140003 | 12 | 0 | 0.0 | 0.0 | 0.23 | 0.43 | 0.38 | 94 | 1007.6 |
| 20260506135503 | 12 | 0 | 0.0 | 0.0 | 0.25 | 0.43 | 0.38 | 94 | 1007.7 |
| 20260506135003 | 12 | 0 | 0.0 | 0.0 | 0.25 | 0.41 | 0.36 | 94 | 1007.4 |
| 20260506134712 | 12 | 0 | 0.0 | 0.0 | 0.25 | 0.41 | 0.36 | 94 | 1007.4 |
| 20260506134003 | 12 | 0 | 0.0 | 0.0 | 0.20 | 0.36 | 0.30 | 94 | 1007.3 |
| 20260506133712 | 12 | 0 | 0.0 | 0.0 | 0.23 | 0.36 | 0.30 | 94 | 1007.1 |
| 20260506133003 | 12 | 0 | 0.0 | 0.0 | 0.20 | 0.33 | 0.28 | 94 | 1007.2 |
| 20260506132503 | 12 | 0 | 0.0 | 0.0 | 0.20 | 0.30 | 0.25 | 94 | 1007.1 |
| 20260506132003 | 12 | 0 | 0.0 | 0.0 | 0.18 | 0.28 | 0.23 | 94 | 1007.0 |
| 20260506131503 | 12 | 0 | 0.0 | 0.0 | 0.18 | 0.28 | 0.23 | 93 | 1007.0 |
| 20260506131003 | 12 | 0 | 0.0 | 0.0 | 0.18 | 0.25 | 0.20 | 94 | 1007.2 |
| 20260506130503 | 12 | 0 | 0.0 | 0.0 | 0.15 | 0.23 | 0.18 | 93 | 1007.0 |
| 20260506130003 | 12 | 0 | 0.0 | 0.0 | 0.13 | 0.20 | 0.15 | 93 | 1007.5 |
| 20260506125503 | 12 | 0 | 0.0 | 0.0 | 0.10 | 0.18 | 0.13 | 93 | 1007.1 |
| 20260506125213 | 12 | 0 | 0.0 | 0.0 | 0.10 | 0.18 | 0.13 | 93 | 1007.2 |
| 20260506124503 | 12 | 0 | 0.0 | 0.0 | 0.08 | 0.15 | 0.10 | 93 | 1007.3 |
| 20260506124003 | 12 | 0 | 0.0 | 0.0 | 0.08 | 0.15 | 0.10 | 93 | 1007.4 |
| 20260506123714 | 12 | 0 | 0.0 | 0.0 | 0.05 | 0.13 | 0.08 | 93 | 1007.4 |
| 20260506123003 | 12 | 0 | 0.0 | 0.0 | 0.05 | 0.13 | 0.08 | 93 | 1007.7 |
| 20260506122503 | 12 | 0 | 0.0 | 0.0 | 0.05 | 0.10 | 0.05 | 93 | 1007.8 |
| 20260506122003 | 12 | 0 | 0.0 | 0.0 | 0.05 | 0.10 | 0.05 | 93 | 1007.8 |
| 20260506121503 | 12 | 0 | 0.0 | 0.0 | 0.05 | 0.10 | 0.05 | 93 | 1007.9 |
| 20260506121003 | 12 | 0 | 0.0 | 0.0 | 0.03 | 0.08 | 0.03 | 92 | 1008.0 |
| 20260506120503 | 12 | 0 | 0.0 | 0.0 | 0.03 | 0.08 | 0.03 | 93 | 1008.0 |
| 20260506120003 | 12 | 0 | 0.0 | 0.0 | 0.03 | 0.08 | 0.03 | 92 | 1008.0 |
| 20260506115503 | 12 | 0 | 0.0 | 0.0 | 0.03 | 0.08 | 0.03 | 92 | 1008.0 |
| 20260506115003 | 12 | 211 | 0.0 | 1.6 | 0.03 | 0.08 | 0.03 | 92 | 1007.7 |
| 20260506114714 | 12 | 211 | 0.0 | 1.6 | 0.03 | 0.08 | 0.03 | 92 | 1007.8 |
| 20260506114003 | 12 | 211 | 1.6 | 4.8 | 0.03 | 0.08 | 0.03 | 92 | 1007.6 |
| 20260506113503 | 12 | 211 | 1.6 | 4.8 | 0.03 | 0.08 | 0.03 | 92 | 1007.6 |
| 20260506113003 | 12 | 211 | 1.6 | 4.8 | 0.03 | 0.08 | 0.03 | 92 | 1007.4 |
| 20260506112503 | 12 | 211 | 0.0 | 4.8 | 0.00 | 0.05 | 0.00 | 92 | 1006.9 |
| 20260506112003 | 12 | 0 | 0.0 | 0.0 | 0.00 | 0.05 | 0.00 | 92 | 1007.2 |
| 20260506111503 | 12 | 195 | 0.0 | 1.6 | 0.00 | 0.05 | 0.00 | 92 | 1007.1 |
| 20260506111003 | 12 | 195 | 0.0 | 1.6 | 0.00 | 0.05 | 0.00 | 92 | 1007.3 |
| 20260506110503 | 12 | 195 | 0.0 | 3.2 | 0.00 | 0.05 | 0.00 | 91 | 1007.5 |
| 20260506110003 | 12 | 195 | 1.6 | 3.2 | 0.00 | 0.05 | 0.00 | 91 | 1007.5 |
| 20260506105503 | 12 | 195 | 1.6 | 3.2 | 0.00 | 0.05 | 0.00 | 91 | 1007.6 |
| 20260506105003 | 12 | 195 | 1.6 | 4.8 | 0.00 | 0.05 | 0.00 | 91 | 1007.6 |
| 20260506104503 | 12 | 195 | 1.6 | 4.8 | 0.00 | 0.05 | 0.00 | 91 | 1007.5 |
| 20260506104003 | 12 | 193 | 1.6 | 4.8 | 0.00 | 0.05 | 0.00 | 91 | 1007.3 |
| 20260506103713 | 12 | 192 | 1.6 | 4.8 | 0.00 | 0.05 | 0.00 | 91 | 1007.3 |
| 20260506103003 | 12 | 206 | 1.6 | 4.8 | 0.00 | 0.05 | 0.00 | 90 | 1007.3 |
| 20260506102503 | 12 | 225 | 1.6 | 4.8 | 0.00 | 0.05 | 0.00 | 90 | 1007.0 |
| 20260506102003 | 12 | 232 | 1.6 | 3.2 | 0.00 | 0.05 | 0.00 | 90 | 1006.9 |
| 20260506101503 | 12 | 232 | 1.6 | 3.2 | 0.00 | 0.05 | 0.00 | 90 | 1007.2 |
| 20260506101003 | 12 | 232 | 0.0 | 3.2 | 0.00 | 0.05 | 0.00 | 89 | 1007.2 |
| 20260506100503 | 12 | 232 | 0.0 | 3.2 | 0.00 | 0.05 | 0.00 | 89 | 1007.1 |
| 20260506100003 | 12 | 0 | 0.0 | 0.0 | 0.00 | 0.05 | 0.00 | 89 | 1006.9 |
| 20260506095503 | 12 | 0 | 0.0 | 0.0 | 0.00 | 0.05 | 0.00 | 89 | 1006.9 |
| 20260506095003 | 12 | 0 | 0.0 | 0.0 | 0.00 | 0.05 | 0.00 | 89 | 1006.9 |
| 20260506094503 | 12 | 232 | 0.0 | 1.6 | 0.00 | 0.05 | 0.00 | 89 | 1006.9 |
| 20260506094003 | 12 | 232 | 0.0 | 1.6 | 0.00 | 0.05 | 0.00 | 89 | 1006.9 |
| 20260506093503 | 12 | 232 | 0.0 | 1.6 | 0.00 | 0.05 | 0.00 | 88 | 1006.7 |
| 20260506093003 | 12 | 0 | 0.0 | 0.0 | 0.00 | 0.05 | 0.00 | 88 | 1006.8 |
| 20260506092503 | 12 | 232 | 0.0 | 1.6 | 0.00 | 0.05 | 0.00 | 88 | 1006.8 |
| 20260506092003 | 12 | 232 | 0.0 | 1.6 | 0.00 | 0.05 | 0.00 | 88 | 1006.9 |
| 20260506091503 | 12 | 0 | 0.0 | 0.0 | 0.00 | 0.05 | 0.00 | 88 | 1006.8 |
| 20260506091003 | 12 | 232 | 0.0 | 1.6 | 0.00 | 0.05 | 0.00 | 88 | 1007.0 |
| 20260506090503 | 12 | 232 | 0.0 | 1.6 | 0.00 | 0.05 | 0.00 | 87 | 1007.1 |
| 20260506090003 | 12 | 232 | 0.0 | 1.6 | 0.00 | 0.05 | 0.00 | 87 | 1007.0 |
| 20260506085503 | 12 | 232 | 0.0 | 3.2 | 0.00 | 0.05 | 0.00 | 87 | 1006.9 |
| 20260506085003 | 12 | 232 | 0.0 | 3.2 | 0.00 | 0.05 | 0.00 | 87 | 1007.1 |
| 20260506084503 | 12 | 0 | 0.0 | 0.0 | 0.00 | 0.05 | 0.00 | 86 | 1007.2 |
| 20260506084003 | 12 | 0 | 0.0 | 0.0 | 0.00 | 0.05 | 0.00 | 86 | 1007.3 |
| 20260506083503 | 12 | 0 | 0.0 | 0.0 | 0.00 | 0.05 | 0.00 | 86 | 1007.3 |
| 20260506083003 | 12 | 0 | 0.0 | 0.0 | 0.00 | 0.05 | 0.00 | 85 | 1007.2 |
| 20260506082503 | 12 | 0 | 0.0 | 0.0 | 0.00 | 0.05 | 0.00 | 85 | 1007.5 |
| 20260506082003 | 12 | 0 | 0.0 | 0.0 | 0.00 | 0.05 | 0.00 | 85 | 1007.5 |
| 20260506081503 | 12 | 232 | 0.0 | 1.6 | 0.00 | 0.05 | 0.00 | 86 | 1007.4 |
| 20260506081003 | 12 | 232 | 0.0 | 3.2 | 0.00 | 0.05 | 0.00 | 85 | 1007.4 |
| 20260506080503 | 12 | 232 | 0.0 | 3.2 | 0.00 | 0.05 | 0.00 | 85 | 1007.4 |
| 20260506073503 | 12 | 232 | 0.0 | 3.2 | 0.00 | 0.05 | 0.00 | 84 | 1008.0 |
| 20260506073003 | 13 | 232 | 0.0 | 1.6 | 0.00 | 0.05 | 0.00 | 84 | 1008.0 |
| 20260506072503 | 12 | 232 | 0.0 | 3.2 | 0.00 | 0.05 | 0.00 | 85 | 1007.8 |
| 20260506072003 | 13 | 232 | 1.6 | 3.2 | 0.00 | 0.05 | 0.00 | 85 | 1007.9 |
| 20260506071503 | 12 | 232 | 1.6 | 4.8 | 0.00 | 0.05 | 0.00 | 85 | 1007.9 |
| 20260506071003 | 12 | 219 | 1.6 | 4.8 | 0.00 | 0.05 | 0.00 | 85 | 1007.8 |
| 20260506070503 | 12 | 219 | 3.2 | 11.3 | 0.00 | 0.05 | 0.00 | 86 | 1007.9 |
| 20260506062503 | 13 | 238 | 3.2 | 8.0 | 0.00 | 0.05 | 0.00 | 88 | 1008.3 |
| 20260506062003 | 13 | 242 | 1.6 | 6.4 | 0.00 | 0.05 | 0.00 | 88 | 1008.3 |
| 20260506061503 | 13 | 241 | 1.6 | 6.4 | 0.00 | 0.05 | 0.00 | 88 | 1008.3 |
| 20260506061003 | 13 | 0 | 0.0 | 0.0 | 0.00 | 0.05 | 0.00 | 88 | 1008.4 |
| 20260506060503 | 13 | 0 | 0.0 | 0.0 | 0.00 | 0.05 | 0.00 | 88 | 1008.5 |
| 20260506051003 | 14 | 215 | 1.6 | 3.2 | 0.00 | 0.05 | 0.00 | 87 | 1008.7 |
| 20260506050503 | 14 | 215 | 1.6 | 3.2 | 0.00 | 0.05 | 0.00 | 86 | 1008.6 |
| 20260506044503 | 15 | 215 | 0.0 | 3.2 | 0.00 | 0.05 | 0.00 | 85 | 1008.7 |
| 20260506044003 | 15 | 118 | 1.6 | 6.4 | 0.00 | 0.05 | 0.00 | 84 | 1008.6 |
| 20260506043503 | 15 | 113 | 1.6 | 8.0 | 0.00 | 0.05 | 0.00 | 84 | 1008.6 |
| 20260506043003 | 15 | 250 | 3.2 | 9.7 | 0.00 | 0.05 | 0.00 | 83 | 1008.2 |
| 20260506042713 | 15 | 270 | 3.2 | 9.7 | 0.00 | 0.05 | 0.00 | 83 | 1008.7 |
| 20260506042003 | 15 | 271 | 3.2 | 8.0 | 0.00 | 0.05 | 0.00 | 83 | 1008.6 |
| 20260506041713 | 15 | 259 | 3.2 | 8.0 | 0.00 | 0.05 | 0.00 | 82 | 1008.4 |
| 20260506041003 | 15 | 289 | 3.2 | 12.9 | 0.00 | 0.05 | 0.00 | 82 | 1008.1 |
| 20260506040503 | 16 | 313 | 3.2 | 12.9 | 0.00 | 0.05 | 0.00 | 82 | 1008.3 |
| 20260506040004 | 16 | 287 | 3.2 | 9.7 | 0.00 | 0.05 | 0.00 | 82 | 1008.0 |
| 20260506035503 | 16 | 283 | 3.2 | 9.7 | 0.00 | 0.05 | 0.05 | 82 | 1008.6 |
| 20260506035003 | 16 | 306 | 3.2 | 12.9 | 0.00 | 0.05 | 0.05 | 82 | 1008.3 |
| 20260506034503 | 16 | 293 | 4.8 | 12.9 | 0.00 | 0.05 | 0.05 | 82 | 1008.3 |
| 20260506034003 | 16 | 284 | 4.8 | 12.9 | 0.00 | 0.05 | 0.05 | 83 | 1008.3 |
| 20260506033503 | 16 | 261 | 6.4 | 24.1 | 0.00 | 0.05 | 0.05 | 84 | 1008.3 |
| 20260506033003 | 16 | 257 | 4.8 | 24.1 | 0.00 | 0.05 | 0.05 | 85 | 1008.4 |
| 20260506032503 | 16 | 279 | 4.8 | 12.9 | 0.00 | 0.05 | 0.05 | 86 | 1008.2 |
| 20260506032003 | 16 | 271 | 4.8 | 12.9 | 0.00 | 0.05 | 0.05 | 87 | 1008.2 |
| 20260506031503 | 16 | 254 | 4.8 | 12.9 | 0.00 | 0.05 | 0.05 | 88 | 1008.3 |
| 20260506031003 | 16 | 265 | 3.2 | 12.9 | 0.00 | 0.05 | 0.05 | 89 | 1008.2 |
| 20260506030503 | 16 | 295 | 3.2 | 9.7 | 0.00 | 0.05 | 0.05 | 89 | 1008.0 |
| 20260506030003 | 16 | 291 | 1.6 | 9.7 | 0.00 | 0.05 | 0.05 | 89 | 1007.9 |
| 20260506025503 | 16 | 275 | 0.0 | 3.2 | 0.00 | 0.05 | 0.05 | 89 | 1007.8 |
| 20260506025003 | 16 | 275 | 1.6 | 4.8 | 0.00 | 0.05 | 0.05 | 89 | 1007.8 |
| 20260506024503 | 16 | 275 | 1.6 | 4.8 | 0.00 | 0.05 | 0.05 | 89 | 1007.7 |
| 20260506024003 | 16 | 279 | 1.6 | 6.4 | 0.03 | 0.05 | 0.05 | 88 | 1007.8 |
| 20260506023503 | 16 | 280 | 1.6 | 6.4 | 0.03 | 0.05 | 0.05 | 88 | 1007.7 |
| 20260506023003 | 16 | 0 | 0.0 | 0.0 | 0.05 | 0.05 | 0.05 | 87 | 1007.6 |
| 20260506022503 | 16 | 0 | 0.0 | 0.0 | 0.05 | 0.05 | 0.05 | 86 | 1007.6 |
| 20260506022003 | 17 | 0 | 0.0 | 0.0 | 0.05 | 0.05 | 0.05 | 86 | 1007.8 |
| 20260506021503 | 17 | 0 | 0.0 | 0.0 | 0.05 | 0.05 | 0.05 | 85 | 1007.8 |
| 20260506021003 | 17 | 0 | 0.0 | 0.0 | 0.05 | 0.05 | 0.05 | 85 | 1007.5 |
| 20260506020503 | 17 | 0 | 0.0 | 0.0 | 0.05 | 0.05 | 0.05 | 84 | 1007.7 |
| 20260506020003 | 17 | 0 | 0.0 | 0.0 | 0.05 | 0.05 | 0.05 | 84 | 1007.5 |
| 20260506015503 | 17 | 0 | 0.0 | 0.0 | 0.05 | 0.05 | 0.05 | 84 | 1007.4 |
| 20260506015003 | 17 | 0 | 0.0 | 0.0 | 0.05 | 0.05 | 0.05 | 83 | 1007.3 |
| 20260506014503 | 17 | 0 | 0.0 | 0.0 | 0.05 | 0.05 | 0.05 | 83 | 1007.4 |
| 20260506014003 | 17 | 0 | 0.0 | 0.0 | 0.03 | 0.03 | 0.03 | 82 | 1007.4 |
| 20260506013503 | 17 | 0 | 0.0 | 0.0 | 0.03 | 0.03 | 0.03 | 81 | 1007.1 |
| 20260506013003 | 17 | 0 | 0.0 | 0.0 | 0.00 | 0.00 | 0.00 | 81 | 1007.2 |
| 20260506012503 | 17 | 0 | 0.0 | 0.0 | 0.00 | 0.00 | 0.00 | 81 | 1006.9 |
| 20260506012003 | 17 | 0 | 0.0 | 0.0 | 0.00 | 0.00 | 0.00 | 80 | 1006.9 |
| 20260506011503 | 17 | 0 | 0.0 | 0.0 | 0.00 | 0.00 | 0.00 | 80 | 1006.7 |
| 20260506011003 | 17 | 0 | 0.0 | 0.0 | 0.00 | 0.00 | 0.00 | 80 | 1006.6 |
| 20260506010503 | 17 | 0 | 0.0 | 0.0 | 0.00 | 0.00 | 0.00 | 79 | 1006.6 |
| 20260506010003 | 17 | 0 | 0.0 | 0.0 | 0.00 | 0.00 | 0.00 | 79 | 1006.6 |
| 20260506005503 | 17 | 0 | 0.0 | 0.0 | 0.00 | 0.00 | 0.00 | 78 | 1006.6 |
| 20260506005003 | 17 | 0 | 0.0 | 0.0 | 0.00 | 0.00 | 0.00 | 78 | 1006.5 |
| 20260506004504 | 17 | 0 | 0.0 | 0.0 | 0.00 | 0.00 | 0.00 | 78 | 1006.6 |
| 20260506004003 | 17 | 0 | 0.0 | 0.0 | 0.00 | 0.00 | 0.00 | 78 | 1006.7 |
| 20260506003713 | 17 | 0 | 0.0 | 0.0 | 0.00 | 0.00 | 0.00 | 78 | 1006.5 |
| 20260506003003 | 17 | 0 | 0.0 | 0.0 | 0.00 | 0.00 | 0.00 | 77 | 1006.2 |
| 20260506002503 | 18 | 0 | 0.0 | 0.0 | 0.00 | 0.00 | 0.00 | 76 | 1006.2 |
| 20260506002003 | 18 | 0 | 0.0 | 0.0 | 0.00 | 0.00 | 0.00 | 76 | 1006.1 |
| 20260506001503 | 18 | 0 | 0.0 | 0.0 | 0.00 | 0.00 | 0.00 | 75 | 1006.1 |
| 20260506001212 | 18 | 113 | 0.0 | 3.2 | 0.00 | 0.00 | 0.00 | 75 | 1006.1 |
| 20260506000503 | 18 | 113 | 1.6 | 3.2 | 0.00 | 0.00 | 0.00 | 75 | 1006.0 |
| 20260506000212 | 18 | 113 | 1.6 | 3.2 | 0.00 | 0.00 | 0.00 | 74 | 1006.0 |
| 20260505235503 | 18 | 114 | 0.0 | 3.2 | 0.00 | 0.00 | 0.00 | 74 | 1005.9 |
| 20260505235003 | 18 | 200 | 0.0 | 1.6 | 0.00 | 0.00 | 0.00 | 73 | 1005.7 |
| 20260505234503 | 18 | 0 | 0.0 | 0.0 | 0.00 | 0.00 | 0.00 | 73 | 1005.6 |
| 20260505234003 | 18 | 0 | 0.0 | 0.0 | 0.00 | 0.00 | 0.00 | 73 | 1005.7 |
| 20260505233503 | 18 | 0 | 0.0 | 0.0 | 0.00 | 0.00 | 0.00 | 72 | 1005.7 |
| 20260505233003 | 18 | 0 | 0.0 | 0.0 | 0.00 | 0.00 | 0.00 | 72 | 1005.6 |
| 20260505232503 | 18 | 0 | 0.0 | 0.0 | 0.00 | 0.00 | 0.00 | 72 | 1005.6 |
| 20260505232003 | 18 | 0 | 0.0 | 0.0 | 0.00 | 0.00 | 0.00 | 71 | 1005.6 |
| 20260505231503 | 18 | 0 | 0.0 | 0.0 | 0.00 | 0.00 | 0.00 | 71 | 1005.5 |
| 20260505231003 | 18 | 0 | 0.0 | 0.0 | 0.00 | 0.00 | 0.00 | 71 | 1005.4 |
| 20260505230713 | 19 | 0 | 0.0 | 0.0 | 0.00 | 0.00 | 0.00 | 71 | 1005.3 |
| 20260505230214 | 19 | 0 | 0.0 | 0.0 | 0.00 | 0.00 | 0.00 | 70 | 1005.3 |
| 20260505225713 | 19 | 0 | 0.0 | 0.0 | 0.00 | 0.00 | 0.00 | 70 | 1005.3 |
| 20260505225214 | 19 | 208 | 0.0 | 3.2 | 0.00 | 0.00 | 0.00 | 70 | 1005.3 |
| 20260505224503 | 19 | 244 | 3.2 | 11.3 | 0.00 | 0.00 | 0.00 | 69 | 1005.2 |
| 20260505224003 | 19 | 279 | 3.2 | 11.3 | 0.00 | 0.00 | 0.00 | 69 | 1005.3 |
| 20260505223713 | 19 | 286 | 4.8 | 11.3 | 0.00 | 0.00 | 0.00 | 69 | 1005.3 |
| 20260505223003 | 19 | 266 | 4.8 | 12.9 | 0.00 | 0.00 | 0.00 | 69 | 1005.3 |
| 20260505222712 | 19 | 258 | 4.8 | 16.1 | 0.00 | 0.00 | 0.00 | 69 | 1005.3 |
| 20260505222003 | 19 | 274 | 8.0 | 19.3 | 0.00 | 0.00 | 0.00 | 68 | 1005.4 |
| 20260505221503 | 19 | 275 | 9.7 | 32.2 | 0.00 | 0.00 | 0.00 | 68 | 1005.4 |
| 20260505221003 | 20 | 274 | 11.3 | 32.2 | 0.00 | 0.00 | 0.00 | 67 | 1005.6 |
| 20260505220503 | 20 | 284 | 11.3 | 30.6 | 0.00 | 0.00 | 0.00 | 65 | 1005.5 |
| 20260505220213 | 20 | 288 | 9.7 | 30.6 | 0.00 | 0.00 | 0.00 | 65 | 1005.4 |
| 20260505215503 | 20 | 286 | 11.3 | 29.0 | 0.00 | 0.00 | 0.00 | 63 | 1005.3 |
| 20260505215003 | 20 | 275 | 9.7 | 29.0 | 0.00 | 0.00 | 0.00 | 62 | 1005.6 |
| 20260505214503 | 20 | 266 | 8.0 | 25.7 | 0.00 | 0.00 | 0.00 | 61 | 1005.7 |
| 20260505214003 | 20 | 255 | 8.0 | 25.7 | 0.00 | 0.00 | 0.00 | 61 | 1005.6 |
| 20260505213712 | 21 | 267 | 8.0 | 25.7 | 0.00 | 0.00 | 0.00 | 60 | 1005.3 |
| 20260505213003 | 21 | 299 | 6.4 | 19.3 | 0.00 | 0.00 | 0.00 | 59 | 1005.3 |
| 20260505212712 | 21 | 308 | 6.4 | 16.1 | 0.00 | 0.00 | 0.00 | 58 | 1004.9 |
| 20260505212003 | 21 | 297 | 6.4 | 17.7 | 0.00 | 0.00 | 0.00 | 57 | 1004.5 |
| 20260505211503 | 22 | 288 | 9.7 | 32.2 | 0.00 | 0.00 | 0.00 | 57 | 1004.7 |
| 20260505211003 | 22 | 286 | 11.3 | 32.2 | 0.00 | 0.00 | 0.00 | 55 | 1004.7 |
| 20260505210503 | 22 | 290 | 8.0 | 24.1 | 0.00 | 0.00 | 0.00 | 56 | 1004.8 |
| 20260505210003 | 22 | 300 | 4.8 | 20.9 | 0.00 | 0.00 | 0.00 | 57 | 1004.2 |
| 20260505205503 | 23 | 307 | 3.2 | 6.4 | 0.00 | 0.00 | 0.00 | 60 | 1004.0 |
| 20260505205003 | 23 | 300 | 3.2 | 6.4 | 0.00 | 0.00 | 0.00 | 59 | 1003.6 |
| 20260505204714 | 22 | 299 | 1.6 | 6.4 | 0.00 | 0.00 | 0.00 | 59 | 1003.5 |
| 20260505204003 | 22 | 339 | 1.6 | 4.8 | 0.00 | 0.00 | 0.00 | 61 | 1003.3 |
| 20260505203714 | 22 | 339 | 1.6 | 4.8 | 0.00 | 0.00 | 0.00 | 60 | 1003.2 |
| 20260505203003 | 22 | 330 | 1.6 | 4.8 | 0.00 | 0.00 | 0.00 | 61 | 1003.1 |
| 20260505202503 | 22 | 314 | 1.6 | 4.8 | 0.00 | 0.00 | 0.00 | 60 | 1003.1 |